Terminal Aerodrome Forecast
Issued by NWS

Home | Current Version | Previous Version | Text Only | Print | Product List | Glossary On
Versions: 1 2 3 4 5 6 7 8 9 10 11 12 13 14 15 16 17 18 19 20
000
FTUS46 KMTR 282300
TAFSFO
TAF
KSFO 282320Z 2900/3006 29007KT P6SM FEW020 FEW200
     FM290600 30005KT P6SM FEW200
     FM292100 29009KT P6SM FEW200=

USA.gov is the U.S. government's official web portal to all federal, state and local government web resources and services.